Time;durP1;ratioP1;P1;durP2;ratioP2;P2;SDS_P1;SDS_P2;PMS_P1;PMS_P2;Temp;Humidity;BMP_temperature;BMP_pressure;BME280_temperature;BME280_humidity;BME280_pressure;Samples;Min_cycle;Max_cycle;Signal;HPM_P1;HPM_P2
2022/01/22 00:01:28;;;;;;;13.85;8.98;;;2.10;99.90;;;;;;1760955;81;21119;-76
2022/01/22 00:03:55;;;;;;;22.80;9.63;;;2.10;99.90;;;;;;1758460;81;21177;-75
2022/01/22 00:06:24;;;;;;;15.38;8.45;;;2.20;99.90;;;;;;1757574;81;21521;-77
2022/01/22 00:08:52;;;;;;;16.23;8.45;;;2.20;99.90;;;;;;1753252;81;21118;-76
2022/01/22 00:11:19;;;;;;;19.50;9.00;;;2.30;99.90;;;;;;1766773;80;21128;-75
2022/01/22 00:16:32;;;;;;;15.10;8.93;;;2.30;99.90;;;;;;1751823;81;21174;-76
2022/01/22 00:18:59;;;;;;;19.77;8.88;;;2.20;99.90;;;;;;1749715;81;21148;-76
2022/01/22 00:21:26;;;;;;;14.85;8.08;;;2.30;99.90;;;;;;1763191;80;21080;-75
2022/01/22 00:23:57;;;;;;;20.35;8.70;;;2.30;99.90;;;;;;1761646;81;21059;-76
2022/01/22 00:26:23;;;;;;;17.10;9.43;;;2.30;99.90;;;;;;1758074;81;21132;-77
2022/01/22 00:28:50;;;;;;;12.33;8.18;;;2.40;99.90;;;;;;1762350;81;21300;-76
2022/01/22 00:31:18;;;;;;;19.55;9.08;;;2.40;99.90;;;;;;1761169;81;21565;-75
2022/01/22 00:33:45;;;;;;;16.60;8.75;;;2.40;99.90;;;;;;1756861;81;21546;-75
2022/01/22 00:36:12;;;;;;;12.30;8.20;;;2.40;99.90;;;;;;1755805;81;21174;-77
2022/01/22 00:38:40;;;;;;;10.00;7.67;;;2.50;99.90;;;;;;1759027;81;21697;-75
2022/01/22 00:41:07;;;;;;;17.00;9.20;;;2.50;99.90;;;;;;1757203;81;21457;-76
2022/01/22 00:43:34;;;;;;;19.45;8.50;;;2.50;99.90;;;;;;1764045;81;21048;-75
2022/01/22 00:46:02;;;;;;;12.85;8.13;;;2.40;99.90;;;;;;1751797;81;21478;-76
2022/01/22 00:48:29;;;;;;;18.12;9.33;;;2.50;99.90;;;;;;1750600;81;21533;-75
2022/01/22 00:50:57;;;;;;;19.87;8.78;;;2.50;99.90;;;;;;1762110;81;21079;-75
2022/01/22 00:53:25;;;;;;;13.38;7.53;;;2.50;99.90;;;;;;1759903;81;21127;-77
2022/01/22 00:55:52;;;;;;;13.48;7.80;;;2.50;99.90;;;;;;1758049;81;21466;-77
2022/01/22 00:58:20;;;;;;;13.35;8.05;;;2.60;99.90;;;;;;1763839;81;21067;-77
2022/01/22 01:00:47;;;;;;;14.03;8.03;;;2.40;99.90;;;;;;1758498;81;21074;-76
2022/01/22 01:03:15;;;;;;;12.28;7.75;;;2.40;99.90;;;;;;1757187;81;21111;-75
2022/01/22 01:05:42;;;;;;;18.77;8.58;;;2.50;99.90;;;;;;1759115;80;21601;-77
2022/01/22 01:08:09;;;;;;;20.43;8.93;;;2.50;99.90;;;;;;1757652;81;21182;-75
2022/01/22 01:10:36;;;;;;;15.15;7.85;;;2.50;99.90;;;;;;1757481;81;21556;-77
2022/01/22 01:13:05;;;;;;;15.90;8.70;;;2.60;99.90;;;;;;1757574;81;21112;-75
2022/01/22 01:15:57;;;;;;;11.63;7.45;;;2.50;99.90;;;;;;1764679;81;21115;-76
2022/01/22 01:32:18;;;;;;;10.10;7.42;;;2.50;99.90;;;;;;1765113;81;21174;-76
2022/01/22 01:34:44;;;;;;;11.30;7.80;;;2.60;99.90;;;;;;1752763;81;21521;-77
2022/01/22 01:37:16;;;;;;;14.58;7.92;;;2.50;99.90;;;;;;1757107;81;21156;-76
2022/01/22 01:39:47;;;;;;;18.77;8.65;;;2.50;99.90;;;;;;1756110;80;21114;-78
2022/01/22 01:42:24;;;;;;;12.15;7.78;;;2.50;99.90;;;;;;1757893;81;21124;-76
2022/01/22 01:44:43;;;;;;;11.85;7.33;;;2.50;99.90;;;;;;1755696;81;21123;-77
2022/01/22 01:47:14;;;;;;;15.48;8.10;;;2.40;99.90;;;;;;1758951;81;21111;-76
2022/01/22 01:49:40;;;;;;;12.68;7.22;;;2.50;99.90;;;;;;1752189;81;21094;-76
2022/01/22 01:52:12;;;;;;;13.80;7.90;;;2.70;99.90;;;;;;1749474;82;21040;-76
2022/01/22 01:54:58;;;;;;;28.12;7.15;;;2.60;99.90;;;;;;1752404;80;21446;-75
2022/01/22 01:59:56;;;;;;;13.43;7.20;;;2.80;99.90;;;;;;1757268;81;21185;-77
2022/01/22 02:02:25;;;;;;;12.25;7.47;;;2.80;99.90;;;;;;1761945;81;21104;-75
2022/01/22 02:04:52;;;;;;;10.50;7.17;;;2.80;99.90;;;;;;1755541;80;21094;-77
2022/01/22 02:07:19;;;;;;;10.00;7.40;;;2.70;99.90;;;;;;1756150;81;21432;-76
2022/01/22 02:09:47;;;;;;;12.03;6.83;;;2.70;99.90;;;;;;1760832;81;21115;-76
2022/01/22 02:26:00;;;;;;;16.52;8.00;;;2.70;99.90;;;;;;1755625;81;21115;-76
2022/01/22 02:28:27;;;;;;;16.95;7.05;;;2.70;99.90;;;;;;1756893;81;21586;-76
2022/01/22 02:31:02;;;;;;;11.08;7.15;;;2.70;99.90;;;;;;1759316;81;21081;-77
2022/01/22 02:35:59;;;;;;;13.85;7.50;;;2.60;99.90;;;;;;1765883;81;21547;-77
2022/01/22 02:38:33;;;;;;;11.28;7.40;;;2.60;99.90;;;;;;1754824;81;21097;-77
2022/01/22 02:40:52;;;;;;;13.93;7.03;;;2.60;99.90;;;;;;1755733;81;21078;-76
2022/01/22 02:43:20;;;;;;;11.53;7.58;;;2.70;99.90;;;;;;1764017;81;21201;-77
2022/01/22 02:45:49;;;;;;;15.30;7.55;;;2.70;99.90;;;;;;1760778;81;21097;-77
2022/01/22 02:48:16;;;;;;;14.98;7.10;;;2.80;99.90;;;;;;1761692;80;21126;-75
2022/01/22 02:50:43;;;;;;;9.25;6.87;;;2.70;99.90;;;;;;1756890;81;21107;-76
2022/01/22 02:53:12;;;;;;;16.25;7.00;;;2.70;99.90;;;;;;1760747;81;21421;-75
2022/01/22 02:55:40;;;;;;;11.85;6.90;;;2.80;99.90;;;;;;1758772;81;21185;-75
2022/01/22 02:58:07;;;;;;;17.77;7.67;;;2.80;99.90;;;;;;1756430;81;21189;-76
2022/01/22 03:00:35;;;;;;;11.60;7.33;;;2.80;99.90;;;;;;1752640;81;21285;-77
2022/01/22 03:03:02;;;;;;;16.93;8.58;;;2.70;99.90;;;;;;1756383;81;21483;-75
2022/01/22 03:05:29;;;;;;;12.35;7.35;;;2.60;99.90;;;;;;1757691;81;21606;-76
2022/01/22 03:07:58;;;;;;;10.80;6.92;;;2.70;99.90;;;;;;1760652;81;21068;-75
2022/01/22 03:10:27;;;;;;;14.23;6.90;;;2.80;99.90;;;;;;1758864;81;21168;-77
2022/01/22 03:13:14;;;;;;;9.60;7.17;;;2.70;99.90;;;;;;1763968;81;21480;-77
2022/01/22 03:18:16;;;;;;;12.47;7.47;;;2.60;99.90;;;;;;1770237;81;21135;-75
2022/01/22 03:21:01;;;;;;;18.15;7.28;;;2.70;99.90;;;;;;1736888;81;21322;-76
2022/01/22 03:28:27;;;;;;;15.18;7.58;;;2.80;99.90;;;;;;1764181;81;21095;-77
2022/01/22 03:30:52;;;;;;;8.05;7.00;;;2.80;99.90;;;;;;1756105;81;21469;-77
2022/01/22 03:33:22;;;;;;;10.75;7.45;;;2.80;99.90;;;;;;1753554;81;21083;-76
2022/01/22 03:35:57;;;;;;;14.85;7.72;;;2.80;99.90;;;;;;1754781;81;21147;-75
2022/01/22 03:38:24;;;;;;;11.45;7.35;;;2.80;99.90;;;;;;1749219;82;21211;-76
2022/01/22 03:40:52;;;;;;;10.88;7.65;;;2.90;99.90;;;;;;1760986;81;21071;-75
2022/01/22 03:43:19;;;;;;;8.90;6.72;;;2.90;99.90;;;;;;1762863;80;21124;-77
2022/01/22 03:45:49;;;;;;;11.20;8.10;;;2.90;99.90;;;;;;1763570;81;21075;-76
2022/01/22 03:48:16;;;;;;;10.55;6.95;;;3.00;99.90;;;;;;1748078;81;21121;-75
2022/01/22 03:50:43;;;;;;;11.53;7.70;;;3.00;99.90;;;;;;1755825;81;21202;-76
2022/01/22 03:53:10;;;;;;;8.63;7.13;;;3.00;99.90;;;;;;1762911;81;21078;-76
2022/01/22 03:55:53;;;;;;;11.95;6.85;;;3.00;99.90;;;;;;1763520;81;21446;-76
2022/01/22 03:58:10;;;;;;;11.97;7.17;;;3.10;99.90;;;;;;1756222;80;21217;-77
2022/01/22 04:00:37;;;;;;;12.68;6.92;;;3.10;99.90;;;;;;1763595;81;21432;-77
2022/01/22 04:03:28;;;;;;;9.58;7.05;;;3.20;99.90;;;;;;1757791;81;21107;-76
2022/01/22 04:05:53;;;;;;;9.18;6.33;;;3.10;99.90;;;;;;1758484;81;21481;-76
2022/01/22 04:08:15;;;;;;;11.00;6.58;;;3.10;99.90;;;;;;1764560;80;21206;-76
2022/01/22 04:10:37;;;;;;;11.28;6.95;;;3.00;99.90;;;;;;1748801;80;21152;-77
2022/01/22 04:13:31;;;;;;;9.65;6.65;;;3.10;99.90;;;;;;1769507;81;21060;-76
2022/01/22 04:15:54;;;;;;;12.03;6.53;;;3.10;99.90;;;;;;1792606;78;21451;-75
2022/01/22 04:26:55;;;;;;;8.80;6.78;;;3.00;99.90;;;;;;1793611;80;21580;-74
2022/01/22 04:29:22;;;;;;;8.93;6.58;;;3.00;99.90;;;;;;1793350;80;21473;-74
2022/01/22 04:31:49;;;;;;;10.48;7.37;;;3.10;99.90;;;;;;1793580;80;21071;-75
2022/01/22 04:34:17;;;;;;;9.63;7.03;;;3.00;99.90;;;;;;1793569;80;21519;-77
2022/01/22 04:36:44;;;;;;;11.60;7.80;;;3.00;99.90;;;;;;1793466;80;21048;-75
2022/01/22 04:39:11;;;;;;;12.30;7.80;;;3.10;99.90;;;;;;1793395;80;21067;-77
2022/01/22 04:41:40;;;;;;;9.88;6.80;;;3.10;99.90;;;;;;1793394;80;21134;-77
2022/01/22 04:44:08;;;;;;;8.70;6.67;;;3.30;99.90;;;;;;1793434;80;21205;-77
2022/01/22 04:54:59;;;;;;;11.22;7.28;;;3.50;99.90;;;;;;1793455;80;21108;-76
2022/01/22 04:57:30;;;;;;;13.65;7.42;;;3.50;99.90;;;;;;1793493;80;21645;-76
2022/01/22 04:59:57;;;;;;;12.10;7.28;;;3.50;99.90;;;;;;1776119;78;21166;-77
2022/01/22 05:02:25;;;;;;;9.63;7.08;;;3.50;99.90;;;;;;1782260;80;21130;-75
2022/01/22 05:04:52;;;;;;;13.18;7.62;;;3.50;99.90;;;;;;1779450;81;21068;-76
2022/01/22 05:07:19;;;;;;;8.08;7.08;;;3.60;99.90;;;;;;1779469;81;21174;-76
2022/01/22 05:09:48;;;;;;;13.88;8.00;;;3.60;99.90;;;;;;1779685;81;21092;-76
2022/01/22 05:12:17;;;;;;;11.12;7.35;;;3.60;99.90;;;;;;1779596;81;21469;-76
2022/01/22 05:14:44;;;;;;;17.32;7.87;;;3.60;99.90;;;;;;1779548;81;21115;-77
2022/01/22 05:17:12;;;;;;;10.90;7.95;;;3.60;99.90;;;;;;1779606;81;21053;-75
2022/01/22 05:22:34;;;;;;;14.75;8.55;;;3.60;99.90;;;;;;1779615;81;21212;-76
2022/01/22 05:24:52;;;;;;;14.53;7.92;;;3.60;99.90;;;;;;1775907;80;21132;-76
2022/01/22 05:30:05;;;;;;;11.85;7.47;;;3.60;99.90;;;;;;1779615;81;21464;-77
2022/01/22 05:32:37;;;;;;;11.95;8.25;;;3.60;99.90;;;;;;1777858;80;21174;-76
2022/01/22 05:37:42;;;;;;;12.68;8.03;;;3.60;99.90;;;;;;1779597;81;21527;-75
2022/01/22 05:40:10;;;;;;;14.53;8.40;;;3.60;99.90;;;;;;1779731;81;21088;-77
2022/01/22 05:42:37;;;;;;;10.80;8.28;;;3.60;99.90;;;;;;1779675;81;21489;-77
2022/01/22 05:45:05;;;;;;;12.90;8.15;;;3.60;99.90;;;;;;1779690;81;21048;-77
2022/01/22 05:47:33;;;;;;;12.82;8.28;;;3.50;99.90;;;;;;1723197;83;21525;-77
2022/01/22 05:50:04;;;;;;;14.50;8.88;;;3.50;99.90;;;;;;1760832;81;21450;-77
2022/01/22 05:52:36;;;;;;;14.68;8.18;;;3.60;99.90;;;;;;1739577;81;21262;-78
2022/01/22 06:00:29;;;;;;;10.70;7.10;;;3.60;99.90;;;;;;1680622;84;21179;-76
2022/01/22 06:02:58;;;;;;;12.80;7.35;;;3.70;99.90;;;;;;1703643;81;21281;-76
2022/01/22 06:05:25;;;;;;;10.38;7.22;;;3.70;99.90;;;;;;1729743;83;21163;-77
2022/01/22 06:07:53;;;;;;;10.15;6.70;;;3.70;99.90;;;;;;1760777;81;21082;-76
2022/01/22 06:10:26;;;;;;;16.67;7.25;;;3.80;99.90;;;;;;1760890;81;21144;-74
2022/01/22 06:15:20;;;;;;;11.95;7.70;;;3.70;99.90;;;;;;1761981;81;21147;-75
2022/01/22 06:17:48;;;;;;;11.55;7.50;;;3.70;99.90;;;;;;1761013;81;21460;-76
2022/01/22 06:20:16;;;;;;;10.38;6.95;;;3.70;99.90;;;;;;1760790;81;21077;-77
2022/01/22 06:22:43;;;;;;;12.33;7.60;;;3.70;99.90;;;;;;1785671;80;21087;-77
2022/01/22 06:25:11;;;;;;;10.32;7.35;;;3.60;99.90;;;;;;1793375;80;21072;-78
2022/01/22 06:27:38;;;;;;;11.55;7.05;;;3.70;99.90;;;;;;1793336;80;21137;-76
2022/01/22 06:30:06;;;;;;;13.43;7.90;;;3.60;99.90;;;;;;1793354;80;21436;-75
2022/01/22 06:32:33;;;;;;;9.98;6.87;;;3.70;99.90;;;;;;1793363;80;21045;-76
2022/01/22 06:35:00;;;;;;;12.15;7.00;;;3.60;99.90;;;;;;1793372;80;21072;-76
2022/01/22 06:37:28;;;;;;;11.22;7.22;;;3.60;99.90;;;;;;1793361;80;21064;-77
2022/01/22 06:42:36;;;;;;;11.38;7.85;;;3.60;99.90;;;;;;1793404;80;21109;-76
2022/01/22 06:45:05;;;;;;;11.95;7.00;;;3.60;99.90;;;;;;1793499;80;21067;-77
2022/01/22 06:47:32;;;;;;;13.08;8.08;;;3.60;99.90;;;;;;1793260;79;21126;-77
2022/01/22 06:49:59;;;;;;;13.22;7.17;;;3.60;99.90;;;;;;1793535;80;21429;-77
2022/01/22 06:52:28;;;;;;;11.35;7.78;;;3.60;99.90;;;;;;1793311;80;21194;-77
2022/01/22 06:54:55;;;;;;;11.10;7.67;;;3.60;99.90;;;;;;1793378;80;21087;-77
2022/01/22 06:57:23;;;;;;;16.37;8.73;;;3.60;99.90;;;;;;1793503;80;21063;-77
2022/01/22 06:59:51;;;;;;;10.65;8.20;;;3.60;99.90;;;;;;1793470;80;21087;-77
2022/01/22 07:02:19;;;;;;;16.42;7.55;;;3.60;99.90;;;;;;1793492;80;21048;-77
2022/01/22 07:04:48;;;;;;;12.60;7.67;;;3.60;99.90;;;;;;1793512;80;21099;-77
2022/01/22 07:07:15;;;;;;;13.30;8.23;;;3.60;99.90;;;;;;1793378;80;21479;-78
2022/01/22 07:09:45;;;;;;;9.55;7.30;;;3.70;99.90;;;;;;1793443;80;21084;-78
2022/01/22 07:12:13;;;;;;;15.72;7.92;;;3.70;99.90;;;;;;1793471;80;21487;-77
2022/01/22 07:14:41;;;;;;;10.00;7.20;;;3.70;99.90;;;;;;1793530;80;21150;-78
2022/01/22 07:17:09;;;;;;;8.85;7.12;;;3.80;99.90;;;;;;1793507;80;21509;-78
2022/01/22 07:19:41;;;;;;;10.43;7.03;;;3.80;99.90;;;;;;1793368;79;21095;-77
2022/01/22 07:22:20;;;;;;;;;;;3.80;99.90;;;;;;1795838;80;21568;-77
2022/01/22 07:24:40;;;;;;;11.03;7.40;;;3.70;99.90;;;;;;1793238;78;20151;-77
2022/01/22 07:27:07;;;;;;;9.25;6.70;;;3.70;99.90;;;;;;1794347;80;21649;-76
2022/01/22 07:29:34;;;;;;;14.00;7.22;;;3.70;99.90;;;;;;1793398;80;21041;-76
2022/01/22 07:32:04;;;;;;;11.25;8.00;;;3.60;99.90;;;;;;1793431;80;21130;-76
2022/01/22 07:34:30;;;;;;;11.78;8.58;;;3.60;99.90;;;;;;1793236;80;21142;-76
2022/01/22 07:37:02;;;;;;;16.15;8.70;;;3.60;99.90;;;;;;1793373;79;21522;-77
2022/01/22 07:39:27;;;;;;;14.13;8.63;;;3.60;99.90;;;;;;1792828;80;21225;-76
2022/01/22 07:41:54;;;;;;;18.02;8.63;;;3.70;99.90;;;;;;1793377;80;21060;-75
2022/01/22 07:44:22;;;;;;;14.38;7.75;;;3.70;99.90;;;;;;1793389;80;21067;-75
2022/01/22 07:46:49;;;;;;;15.48;8.58;;;3.70;99.90;;;;;;1793471;80;21149;-77
2022/01/22 07:49:19;;;;;;;11.12;8.10;;;3.60;99.90;;;;;;1793399;80;21079;-76
2022/01/22 07:51:45;;;;;;;12.93;8.55;;;3.60;99.90;;;;;;1793113;80;21116;-77
2022/01/22 07:54:14;;;;;;;12.85;8.83;;;3.60;99.90;;;;;;1793527;80;21072;-76
2022/01/22 07:56:42;;;;;;;12.15;8.20;;;3.70;99.90;;;;;;1793390;80;21203;-80
2022/01/22 07:59:09;;;;;;;16.62;8.80;;;3.70;99.90;;;;;;1793412;80;21138;-75
2022/01/22 08:01:36;;;;;;;16.37;7.90;;;3.70;99.90;;;;;;1793337;80;21095;-75
2022/01/22 08:04:04;;;;;;;15.48;8.93;;;3.70;99.90;;;;;;1793400;80;21141;-75
2022/01/22 08:06:31;;;;;;;14.20;9.18;;;3.80;99.90;;;;;;1793401;80;21142;-77
2022/01/22 08:08:59;;;;;;;11.30;8.38;;;3.70;99.90;;;;;;1793457;80;21235;-74
2022/01/22 08:11:26;;;;;;;17.62;9.23;;;3.70;99.90;;;;;;1793371;80;21146;-76
2022/01/22 08:13:53;;;;;;;11.53;9.08;;;3.70;99.90;;;;;;1793402;80;21239;-76
2022/01/22 08:16:20;;;;;;;12.90;8.65;;;3.70;99.90;;;;;;1793314;80;21483;-74
2022/01/22 08:18:48;;;;;;;12.28;8.65;;;3.70;99.90;;;;;;1793384;80;21096;-75
2022/01/22 08:21:15;;;;;;;11.50;8.78;;;3.70;99.90;;;;;;1793390;80;21076;-75
2022/01/22 08:23:42;;;;;;;14.60;8.98;;;3.60;99.90;;;;;;1793363;80;21076;-74
2022/01/22 08:26:11;;;;;;;13.88;8.93;;;3.70;99.90;;;;;;1793226;80;21196;-74
2022/01/22 08:28:54;;;;;;;25.08;9.40;;;3.60;99.90;;;;;;1793307;80;21099;-75
2022/01/22 08:31:37;;;;;;;15.08;8.68;;;3.60;99.90;;;;;;1793475;80;21487;-75
2022/01/22 08:36:39;;;;;;;16.60;9.43;;;3.50;99.90;;;;;;1793311;80;21550;-72
2022/01/22 08:39:07;;;;;;;17.10;9.30;;;3.60;99.90;;;;;;1793280;80;21154;-71
2022/01/22 08:41:34;;;;;;;16.20;9.65;;;3.60;99.90;;;;;;1793406;80;21100;-73
2022/01/22 08:44:01;;;;;;;18.92;10.80;;;3.60;99.90;;;;;;1793309;79;21059;-71
2022/01/22 08:46:29;;;;;;;18.67;9.20;;;3.60;99.90;;;;;;1778928;79;21180;-72
2022/01/22 08:48:56;;;;;;;12.03;8.70;;;3.60;99.90;;;;;;1782108;80;21448;-72
2022/01/22 08:51:24;;;;;;;11.03;9.10;;;3.60;99.90;;;;;;1793350;80;21137;-73
2022/01/22 08:53:51;;;;;;;15.03;8.75;;;3.50;99.90;;;;;;1793569;80;21075;-71
2022/01/22 08:56:18;;;;;;;17.07;10.13;;;3.50;99.90;;;;;;1793468;80;21507;-77
2022/01/22 08:58:46;;;;;;;20.17;9.90;;;3.50;99.90;;;;;;1783795;79;21112;-78
2022/01/22 09:01:13;;;;;;;14.85;9.60;;;3.40;99.90;;;;;;1794474;79;21075;-78
2022/01/22 09:03:40;;;;;;;15.08;9.83;;;3.50;99.90;;;;;;1793364;78;21071;-84
2022/01/22 09:06:08;;;;;;;14.80;10.08;;;3.50;99.90;;;;;;1793457;78;21229;-79
2022/01/22 09:08:35;;;;;;;16.32;9.83;;;3.40;99.90;;;;;;1772115;79;21129;-78
2022/01/22 09:11:02;;;;;;;10.32;9.18;;;3.40;99.90;;;;;;1757718;81;21431;-76
2022/01/22 09:13:30;;;;;;;20.48;10.60;;;3.40;99.90;;;;;;1760965;81;21077;-77
2022/01/22 09:15:57;;;;;;;14.58;9.18;;;3.50;99.90;;;;;;1760899;81;21143;-77
2022/01/22 09:18:24;;;;;;;15.28;10.60;;;3.60;99.90;;;;;;1760749;81;21141;-79
2022/01/22 09:23:21;;;;;;;14.93;9.60;;;3.50;99.90;;;;;;1793268;80;21095;-77
2022/01/22 09:25:48;;;;;;;19.92;10.72;;;3.30;99.90;;;;;;1793430;80;21108;-77
2022/01/22 09:28:15;;;;;;;20.10;10.68;;;3.40;99.90;;;;;;1772325;79;21203;-78
2022/01/22 09:30:43;;;;;;;30.48;11.10;;;3.40;99.90;;;;;;1764100;80;21096;-79
2022/01/22 09:33:10;;;;;;;14.75;10.60;;;3.30;99.90;;;;;;1787822;79;21046;-81
2022/01/22 09:35:37;;;;;;;15.80;10.50;;;3.30;99.90;;;;;;1788636;79;21358;-82
2022/01/22 09:38:05;;;;;;;17.87;10.40;;;3.40;99.90;;;;;;1781639;80;21480;-82
2022/01/22 09:40:32;;;;;;;14.87;10.35;;;3.40;99.90;;;;;;1781548;79;21177;-78
2022/01/22 09:43:00;;;;;;;19.23;10.93;;;3.70;99.90;;;;;;1779313;80;21091;-78
2022/01/22 09:45:28;;;;;;;19.60;11.60;;;3.70;99.90;;;;;;1786174;79;21082;-80
2022/01/22 09:47:56;;;;;;;16.17;9.90;;;3.60;99.90;;;;;;1790318;79;21059;-80
2022/01/22 09:50:24;;;;;;;17.25;10.95;;;3.70;99.90;;;;;;1786944;80;21036;-79
2022/01/22 09:52:51;;;;;;;16.37;10.38;;;3.60;99.90;;;;;;1787897;79;21483;-81
2022/01/22 09:55:18;;;;;;;13.70;10.50;;;3.50;99.90;;;;;;1790009;79;21129;-80
2022/01/22 09:57:46;;;;;;;18.48;10.35;;;3.50;99.90;;;;;;1792513;79;21071;-81
2022/01/22 10:00:14;;;;;;;29.02;11.85;;;3.50;99.90;;;;;;1788510;78;21126;-78
2022/01/22 10:02:43;;;;;;;17.57;11.68;;;3.60;99.90;;;;;;1781018;79;21478;-78
2022/01/22 10:05:35;;;;;;;18.62;11.55;;;3.60;99.90;;;;;;1789166;79;21055;-75
2022/01/22 10:08:28;;;;;;;17.67;11.53;;;3.50;99.90;;;;;;1794624;79;21470;-76
2022/01/22 10:10:52;;;;;;;17.30;11.25;;;3.50;99.90;;;;;;1792638;78;21108;-77
2022/01/22 10:13:39;;;;;;;16.75;11.28;;;3.50;99.90;;;;;;1776798;79;21522;-78
2022/01/22 10:16:11;;;;;;;19.35;11.85;;;3.50;99.90;;;;;;1770963;79;21193;-78
2022/01/22 10:18:39;;;;;;;16.85;11.45;;;3.50;99.90;;;;;;1779807;78;21479;-77
2022/01/22 10:21:10;;;;;;;16.70;10.30;;;3.50;99.90;;;;;;1777908;80;21168;-76
2022/01/22 10:23:42;;;;;;;17.12;11.25;;;3.50;99.90;;;;;;1781084;79;21111;-75
2022/01/22 10:26:11;;;;;;;18.62;11.45;;;3.60;99.90;;;;;;1761303;80;21525;-75
2022/01/22 10:28:44;;;;;;;20.50;11.15;;;3.80;99.90;;;;;;1788325;79;21108;-75
2022/01/22 10:31:20;;;;;;;14.83;10.23;;;3.90;99.90;;;;;;1762163;80;21179;-74
2022/01/22 10:33:40;;;;;;;19.60;10.63;;;3.90;99.90;;;;;;1765673;80;21186;-74
2022/01/22 10:36:16;;;;;;;16.60;10.95;;;4.00;99.90;;;;;;1774076;80;21125;-73
2022/01/22 10:38:47;;;;;;;17.32;10.68;;;4.00;99.90;;;;;;1765792;80;21509;-74
2022/01/22 10:41:15;;;;;;;18.05;9.78;;;4.10;99.90;;;;;;1778829;79;21074;-74
2022/01/22 10:43:54;;;;;;;18.55;11.03;;;4.20;99.90;;;;;;1792643;80;21055;-75
2022/01/22 10:46:41;;;;;;;20.43;11.55;;;4.00;99.90;;;;;;1791679;79;21076;-74
2022/01/22 10:48:57;;;;;;;16.70;11.28;;;4.00;99.90;;;;;;1780361;79;21484;-79
2022/01/22 10:51:28;;;;;;;17.67;10.78;;;4.00;99.90;;;;;;1764291;80;21112;-77
2022/01/22 10:53:59;;;;;;;16.45;11.10;;;4.00;99.90;;;;;;1773962;79;21091;-77
2022/01/22 10:56:27;;;;;;;14.63;10.40;;;4.10;99.90;;;;;;1787849;79;21119;-77
2022/01/22 10:59:05;;;;;;;20.00;10.72;;;4.30;99.90;;;;;;1781887;80;21074;-76
2022/01/22 11:01:48;;;;;;;18.60;11.50;;;4.30;99.90;;;;;;1789313;80;21317;-77
2022/01/22 11:04:17;;;;;;;26.12;11.85;;;4.40;99.90;;;;;;1761782;80;21457;-76
2022/01/22 11:06:50;;;;;;;17.90;11.10;;;4.30;99.90;;;;;;1790711;80;21054;-76
2022/01/22 11:09:18;;;;;;;18.27;10.25;;;4.30;99.90;;;;;;1790294;80;21130;-75
2022/01/22 11:11:45;;;;;;;19.90;10.85;;;4.20;99.90;;;;;;1778996;79;21098;-75
2022/01/22 11:14:13;;;;;;;19.00;10.70;;;4.30;99.90;;;;;;1773809;78;21469;-77
2022/01/22 11:16:42;;;;;;;16.20;10.35;;;4.40;99.90;;;;;;1787431;79;21069;-76
2022/01/22 11:19:10;;;;;;;16.60;10.53;;;4.40;99.90;;;;;;1777767;79;21232;-76
2022/01/22 11:21:40;;;;;;;14.87;10.50;;;4.40;99.90;;;;;;1789289;80;21183;-76
2022/01/22 11:24:09;;;;;;;20.05;10.78;;;4.40;99.90;;;;;;1778924;80;21118;-77
2022/01/22 11:26:39;;;;;;;19.62;11.65;;;4.50;99.90;;;;;;1782132;80;21099;-76
2022/01/22 11:29:06;;;;;;;21.55;11.12;;;4.70;99.90;;;;;;1779155;80;21194;-76
2022/01/22 11:31:37;;;;;;;18.75;10.68;;;4.70;99.90;;;;;;1780692;79;21559;-77
2022/01/22 11:34:05;;;;;;;16.90;11.48;;;4.80;99.90;;;;;;1772343;80;21539;-76
2022/01/22 11:36:37;;;;;;;18.70;11.55;;;4.60;99.90;;;;;;1779234;80;21219;-76
2022/01/22 11:39:05;;;;;;;18.90;10.55;;;4.60;99.90;;;;;;1784824;80;21106;-77
2022/01/22 11:41:32;;;;;;;12.88;9.78;;;4.60;99.90;;;;;;1794497;79;21667;-76
2022/01/22 11:44:17;;;;;;;12.70;9.38;;;4.80;99.90;;;;;;1799037;79;21569;-75
2022/01/22 11:46:45;;;;;;;17.55;10.45;;;4.70;99.90;;;;;;1792332;80;21129;-77
2022/01/22 11:49:17;;;;;;;15.93;10.43;;;4.60;99.90;;;;;;1790592;79;21444;-77
2022/01/22 11:51:47;;;;;;;15.23;9.15;;;4.60;99.90;;;;;;1780773;80;21114;-78
2022/01/22 11:54:15;;;;;;;20.25;10.05;;;4.60;99.90;;;;;;1779404;81;21151;-76
2022/01/22 11:56:44;;;;;;;15.38;9.23;;;4.60;99.90;;;;;;1790601;79;21076;-77
2022/01/22 11:59:29;;;;;;;15.58;8.48;;;4.50;99.90;;;;;;1791449;80;21040;-76
2022/01/22 12:02:03;;;;;;;21.90;10.32;;;4.40;99.90;;;;;;1793316;80;21416;-77
2022/01/22 12:04:39;;;;;;;17.15;9.80;;;4.40;99.90;;;;;;1793250;80;21099;-78
2022/01/22 12:07:10;;;;;;;18.90;9.93;;;4.30;99.90;;;;;;1792637;80;21056;-77
2022/01/22 12:15:44;;;;;;;16.40;9.63;;;4.40;99.90;;;;;;1781566;80;21100;-76
2022/01/22 12:18:15;;;;;;;15.78;9.85;;;4.40;99.90;;;;;;1792334;79;21196;-77
2022/01/22 12:23:34;;;;;;;25.32;10.38;;;4.50;99.90;;;;;;1784937;80;21051;-76
2022/01/22 12:26:02;;;;;;;16.32;10.48;;;4.50;99.90;;;;;;1764741;80;21075;-78
2022/01/22 12:28:43;;;;;;;20.70;10.55;;;4.50;99.90;;;;;;1784103;79;21152;-78
2022/01/22 12:31:19;;;;;;;16.50;9.53;;;4.70;99.90;;;;;;1777507;79;21468;-77
2022/01/22 12:33:52;;;;;;;20.57;9.25;;;4.80;99.90;;;;;;1793429;80;21048;-77
2022/01/22 12:36:28;;;;;;;16.85;10.23;;;4.90;99.90;;;;;;1793292;78;21190;-78
2022/01/22 12:39:07;;;;;;;13.58;9.68;;;4.90;99.90;;;;;;1765268;80;21228;-77
2022/01/22 12:44:23;;;;;;;14.58;9.55;;;4.80;99.90;;;;;;1780386;79;21120;-77
2022/01/22 12:46:43;;;;;;;15.43;9.20;;;4.70;99.90;;;;;;1790148;80;21072;-77
2022/01/22 12:49:10;;;;;;;18.15;10.20;;;4.80;99.90;;;;;;1793287;79;21130;-77
2022/01/22 12:51:38;;;;;;;18.55;10.18;;;4.80;99.90;;;;;;1771194;80;21311;-77
2022/01/22 12:54:05;;;;;;;18.07;9.95;;;5.00;99.90;;;;;;1785689;79;21098;-77
2022/01/22 12:59:03;;;;;;;18.92;11.15;;;5.00;99.90;;;;;;1780710;79;21088;-77
2022/01/22 13:01:32;;;;;;;16.27;10.13;;;5.00;99.90;;;;;;1780910;79;21291;-77
2022/01/22 13:04:02;;;;;;;13.48;10.03;;;5.00;99.90;;;;;;1784555;80;21096;-76
2022/01/22 13:06:40;;;;;;;18.07;9.78;;;5.10;99.90;;;;;;1769715;79;21262;-77
2022/01/22 13:09:10;;;;;;;14.78;9.55;;;5.00;99.90;;;;;;1785476;80;21071;-77
2022/01/22 13:11:45;;;;;;;18.10;9.53;;;5.10;99.90;;;;;;1780237;80;21166;-77
2022/01/22 13:14:06;;;;;;;12.63;8.38;;;5.00;99.90;;;;;;1778076;80;21061;-77
2022/01/22 13:16:33;;;;;;;14.13;8.03;;;5.00;99.90;;;;;;1779451;81;21468;-77
2022/01/22 13:19:00;;;;;;;9.88;6.58;;;4.90;99.90;;;;;;1779517;81;21079;-77
2022/01/22 13:21:31;;;;;;;11.60;7.15;;;4.80;99.90;;;;;;1779473;81;21231;-77
2022/01/22 13:24:07;;;;;;;9.93;6.75;;;4.90;99.90;;;;;;1779381;80;21151;-77
2022/01/22 13:26:59;;;;;;;8.88;6.30;;;4.90;99.90;;;;;;1774360;81;21204;-76
2022/01/22 13:29:29;;;;;;;11.50;6.78;;;5.00;99.90;;;;;;1778575;81;21103;-76
2022/01/22 13:32:17;;;;;;;8.13;5.80;;;5.10;99.90;;;;;;1779487;81;21151;-75
2022/01/22 13:38:31;;;;;;;9.88;5.30;;;5.10;99.90;;;;;;1793419;80;21169;-77
2022/01/22 13:48:57;;;;;;;10.53;6.10;;;5.10;99.90;;;;;;1793385;80;21504;-77
2022/01/22 13:51:26;;;;;;;10.37;6.23;;;5.00;99.90;;;;;;1793349;80;21079;-77
2022/01/22 13:53:54;;;;;;;10.60;6.90;;;4.90;99.90;;;;;;1793377;80;21141;-76
2022/01/22 13:56:44;;;;;;;15.20;6.40;;;4.90;99.90;;;;;;1793364;79;21455;-76
2022/01/22 13:59:19;;;;;;;8.58;6.17;;;4.90;99.90;;;;;;1820243;78;21084;-76
2022/01/22 14:02:08;;;;;;;9.83;6.17;;;5.00;99.90;;;;;;1803435;79;21073;-75
2022/01/22 14:04:44;;;;;;;14.35;6.90;;;5.00;99.90;;;;;;1820797;77;21147;-76
2022/01/22 14:07:17;;;;;;;7.05;6.15;;;5.00;99.90;;;;;;1795262;79;21056;-77
2022/01/22 14:09:58;;;;;;;8.30;6.53;;;5.10;99.90;;;;;;1824451;78;21088;-77
2022/01/22 14:12:31;;;;;;;14.65;7.00;;;5.00;99.90;;;;;;1820794;78;21481;-77
2022/01/22 14:15:05;;;;;;;12.15;6.72;;;5.00;99.90;;;;;;1798536;79;21084;-76
2022/01/22 14:17:48;;;;;;;12.47;7.20;;;5.10;99.90;;;;;;1820839;79;21061;-77
2022/01/22 14:20:10;;;;;;;7.72;6.40;;;5.10;99.90;;;;;;1821388;77;21090;-78
2022/01/22 14:22:54;;;;;;;8.00;6.15;;;5.00;99.90;;;;;;1821684;79;21049;-77
2022/01/22 14:25:22;;;;;;;15.88;6.80;;;5.00;99.90;;;;;;1821397;79;21408;-76
2022/01/22 14:28:07;;;;;;;10.05;7.20;;;5.00;99.90;;;;;;1821262;79;21069;-77
2022/01/22 14:30:43;;;;;;;13.88;8.13;;;4.90;99.90;;;;;;1821188;78;21062;-77
2022/01/22 14:33:11;;;;;;;12.07;7.22;;;4.90;99.90;;;;;;1821322;79;21115;-77
2022/01/22 14:35:39;;;;;;;11.73;7.53;;;4.90;99.90;;;;;;1821220;79;21442;-76
2022/01/22 14:38:24;;;;;;;11.10;6.83;;;4.90;99.90;;;;;;1830450;78;21178;-77
2022/01/22 14:46:52;;;;;;;13.75;7.47;;;4.90;99.90;;;;;;1806717;77;21096;-78
2022/01/22 14:49:17;;;;;;;10.70;7.50;;;4.90;99.90;;;;;;1824876;78;21160;-77
2022/01/22 14:51:44;;;;;;;12.60;7.58;;;4.90;99.90;;;;;;1821535;79;21065;-77
2022/01/22 14:54:11;;;;;;;11.05;6.80;;;5.00;99.90;;;;;;1821519;79;21139;-76